Anadyr', Russia
Current Conditions -  °F | °C
As of 1:00 PM on Sunday 23 Nov 2014 (Local Time) from UHMA Reporting Station
Overcast Overcast  
Wind Chill: -4°   Ceiling: 8000
Heat Index: 12°   Visibility: 6mi
Dew Point:   Wind: 16mph
Humidity: 85%   Direction: 360°N
Pressure: 29.88"   Gusts: NA
Location:  64.75°N, 177.48°E
Report Text: UHMA 230100Z 36007MPS 9999 OVC080 M11/M13 Q1012 NOSIG RMKQFE755/1007
Loading
Personal Weather Stations






























Interactive Weather Map New forecast layout! Learn more

10-Day Weather Forecast

Advertisements
Track Severe Weather on mobile